Terminal Aerodrome Forecast
Issued by NWS Bismarck, ND

Home | Current Version | Previous Version | Graphics & Text | Print | Product List | Glossary On
Versions: 1 2 3 4 5 6 7 8 9 10 11 12 13 14 15
592
FTUS43 KBIS 212339
TAFISN
TAF
KISN 212339Z 2200/2224 14021G29KT P6SM BKN250
     FM220500 15016G26KT P6SM VCTS BKN060CB
     FM221200 20006KT P6SM BKN050
     FM221600 23006KT P6SM SCT100=

USA.gov is the U.S. government's official web portal to all federal, state and local government web resources and services.